Time;durP1;ratioP1;P1;durP2;ratioP2;P2;SDS_P1;SDS_P2;PMS_P1;PMS_P2;Temp;Humidity;BMP_temperature;BMP_pressure;BME280_temperature;BME280_humidity;BME280_pressure;Samples;Min_cycle;Max_cycle;Signal;HPM_P1;HPM_P2
2021/05/13 00:00:30;;;;;;;8.02;5.07;;;;;;;17.35;68.88;99018.75;5060631;28;20039;-74
2021/05/13 00:02:56;;;;;;;6.93;4.50;;;;;;;17.29;68.40;99016.16;5062673;28;20052;-69
2021/05/13 00:05:21;;;;;;;6.50;4.75;;;;;;;17.22;67.97;99014.38;5061028;28;20043;-74
2021/05/13 00:07:47;;;;;;;11.32;5.00;;;;;;;17.39;67.64;99016.44;5061003;28;20032;-74
2021/05/13 00:10:17;;;;;;;8.40;4.88;;;;;;;17.18;67.52;99017.69;5063799;28;20096;-68
2021/05/13 00:15:19;;;;;;;7.72;4.90;;;;;;;17.09;67.46;99027.06;5059754;28;20041;-68
2021/05/13 00:17:44;;;;;;;8.68;5.00;;;;;;;17.23;66.89;99024.03;5060923;28;20029;-74
2021/05/13 00:20:14;;;;;;;7.75;5.10;;;;;;;17.14;67.31;99024.53;5061592;28;20110;-68
2021/05/13 00:22:39;;;;;;;8.27;4.43;;;;;;;17.14;67.31;99028.03;5061753;28;20045;-74
2021/05/13 00:25:06;;;;;;;7.25;5.07;;;;;;;17.04;67.79;99025.06;5060927;28;20376;-74
2021/05/13 00:27:32;;;;;;;9.27;4.70;;;;;;;16.98;68.05;99022.44;5062942;28;20064;-68
2021/05/13 00:29:57;;;;;;;9.15;5.15;;;;;;;17.00;68.33;99029.19;5063376;28;20365;-68
2021/05/13 00:32:22;;;;;;;11.10;5.00;;;;;;;17.09;68.35;99029.72;5059941;28;20341;-74
2021/05/13 00:34:48;;;;;;;7.90;5.07;;;;;;;17.22;67.67;99037.63;5060870;28;20033;-74
2021/05/13 00:37:14;;;;;;;9.93;5.20;;;;;;;17.19;67.63;99022.00;5059416;28;20025;-74
2021/05/13 00:39:39;;;;;;;8.88;5.72;;;;;;;17.28;67.90;99042.09;5059924;28;20250;-68
2021/05/13 00:42:05;;;;;;;8.98;4.85;;;;;;;17.21;67.81;99027.97;5059981;28;20056;-68
2021/05/13 00:44:34;;;;;;;7.47;5.35;;;;;;;17.16;68.10;99025.94;5061109;28;20369;-68
2021/05/13 00:47:00;;;;;;;7.10;5.25;;;;;;;17.26;67.62;99032.66;5059581;28;20242;-68
2021/05/13 00:49:25;;;;;;;10.70;5.63;;;;;;;17.31;67.07;99033.63;5061327;28;20033;-70
2021/05/13 00:51:51;;;;;;;9.93;5.50;;;;;;;17.04;68.87;99041.09;5058869;28;20055;-69
2021/05/13 00:54:20;;;;;;;8.07;6.00;;;;;;;16.51;70.36;99022.78;5057981;28;20028;-68
2021/05/13 00:56:45;;;;;;;10.27;6.82;;;;;;;15.91;73.40;99040.25;5060703;28;20253;-74
2021/05/13 00:59:12;;;;;;;8.43;6.35;;;;;;;15.93;73.76;99044.34;5060209;28;20045;-74
2021/05/13 01:04:18;;;;;;;6.82;5.68;;;;;;;16.39;72.39;99045.91;5057398;28;20096;-69
2021/05/13 01:06:45;;;;;;;11.27;6.60;;;;;;;16.46;71.95;99056.53;5060248;28;20213;-68
2021/05/13 01:09:11;;;;;;;7.88;5.82;;;;;;;16.49;71.75;99064.94;5059047;28;20041;-68
2021/05/13 01:11:41;;;;;;;9.00;5.85;;;;;;;16.50;71.47;99065.75;5060478;28;20219;-68
2021/05/13 01:19:34;;;;;;;10.15;6.85;;;;;;;15.82;75.36;99049.53;5062600;28;20104;-68
2021/05/13 01:22:00;;;;;;;14.93;7.57;;;;;;;15.76;76.17;99051.19;5061107;28;20037;-74
2021/05/13 01:24:26;;;;;;;13.32;7.97;;;;;;;15.28;78.36;99056.03;5074228;28;20028;-68
2021/05/13 01:26:52;;;;;;;10.77;8.00;;;;;;;15.10;79.28;99055.84;5059370;28;20037;-74
2021/05/13 01:29:20;;;;;;;17.00;8.80;;;;;;;15.23;79.89;99051.31;5061696;28;20341;-73
2021/05/13 01:31:47;;;;;;;14.57;8.73;;;;;;;15.24;80.37;99050.28;5059209;28;20070;-74
2021/05/13 01:34:12;;;;;;;13.07;9.65;;;;;;;15.00;82.46;99056.28;5059540;28;20060;-68
2021/05/13 01:36:38;;;;;;;12.63;9.73;;;;;;;15.02;82.77;99036.38;5060636;28;20101;-68
2021/05/13 01:39:06;;;;;;;16.27;9.80;;;;;;;15.05;82.57;99053.81;5058871;28;20045;-76
2021/05/13 01:41:32;;;;;;;19.42;10.52;;;;;;;15.05;82.95;99053.81;5056202;28;20075;-70
2021/05/13 01:43:57;;;;;;;13.77;10.45;;;;;;;15.04;82.52;99059.34;5058837;28;20100;-70
2021/05/13 01:46:23;;;;;;;16.63;11.20;;;;;;;14.90;83.59;99062.03;5058911;28;20032;-70
2021/05/13 01:48:48;;;;;;;15.48;11.35;;;;;;;14.75;84.70;99058.75;5062406;28;20111;-76
2021/05/13 01:51:14;;;;;;;14.43;10.95;;;;;;;14.88;83.85;99052.59;5062597;28;20059;-70
2021/05/13 01:53:41;;;;;;;17.27;10.77;;;;;;;14.80;84.69;99048.31;5062672;28;20252;-74
2021/05/13 01:56:08;;;;;;;15.27;9.88;;;;;;;15.12;83.13;99043.97;5063011;28;20044;-68
2021/05/13 01:58:34;;;;;;;17.02;10.95;;;;;;;14.96;83.04;99049.72;5048999;28;20032;-68
2021/05/13 02:00:59;;;;;;;13.75;9.23;;;;;;;14.92;81.26;99048.50;5061470;28;20071;-73
2021/05/13 02:03:26;;;;;;;14.85;9.60;;;;;;;14.84;81.32;99049.53;5059092;28;20242;-68
2021/05/13 02:05:52;;;;;;;13.05;8.25;;;;;;;14.73;80.38;99050.16;5059743;28;20025;-74
2021/05/13 02:08:17;;;;;;;15.40;8.77;;;;;;;14.62;79.72;99045.44;5058955;28;20315;-68
2021/05/13 02:10:43;;;;;;;14.75;8.25;;;;;;;14.52;79.76;99055.66;5056939;28;20231;-68
2021/05/13 02:13:08;;;;;;;13.40;7.30;;;;;;;14.48;78.48;99057.91;5060384;28;20206;-73
2021/05/13 02:15:34;;;;;;;15.95;7.80;;;;;;;14.40;78.34;99055.41;5061118;28;20048;-68
2021/05/13 02:17:59;;;;;;;10.63;6.15;;;;;;;14.38;75.80;99063.59;5060375;28;20064;-68
2021/05/13 02:20:25;;;;;;;8.57;5.88;;;;;;;14.37;74.28;99061.97;5058386;28;20048;-74
2021/05/13 02:22:51;;;;;;;11.77;5.38;;;;;;;14.41;73.74;99062.38;5056569;28;20028;-70
2021/05/13 02:25:17;;;;;;;8.93;5.40;;;;;;;14.48;73.26;99070.41;5055921;28;20218;-76
2021/05/13 02:27:43;;;;;;;10.93;5.60;;;;;;;14.49;72.07;99067.53;5059888;28;20033;-75
2021/05/13 02:30:11;;;;;;;9.82;6.32;;;;;;;14.41;71.98;99074.88;5058820;28;20100;-68
2021/05/13 02:32:37;;;;;;;6.22;4.45;;;;;;;14.47;70.62;99074.91;5060875;28;20273;-68
2021/05/13 02:35:07;;;;;;;10.18;6.07;;;;;;;14.35;71.11;99069.34;5060473;28;20036;-73
2021/05/13 02:37:33;;;;;;;5.38;4.43;;;;;;;14.29;70.52;99072.81;5056634;28;20056;-68
2021/05/13 02:39:58;;;;;;;5.93;4.53;;;;;;;14.15;70.04;99079.13;5059791;28;20048;-68
2021/05/13 02:42:24;;;;;;;10.18;3.45;;;;;;;14.31;69.09;99072.59;5061098;28;20037;-71
2021/05/13 02:44:49;;;;;;;6.05;3.70;;;;;;;14.13;68.51;99075.03;5059858;28;20041;-68
2021/05/13 02:47:15;;;;;;;5.88;3.72;;;;;;;14.16;68.88;99063.97;5058319;28;20127;-75
2021/05/13 02:49:40;;;;;;;7.85;3.97;;;;;;;14.29;68.38;99075.47;5059658;28;20044;-74
2021/05/13 02:52:06;;;;;;;5.47;3.40;;;;;;;14.14;68.25;99066.03;5057424;28;20052;-73
2021/05/13 02:54:32;;;;;;;6.30;3.42;;;;;;;14.15;68.92;99075.66;5059082;28;20041;-73
2021/05/13 02:56:57;;;;;;;10.98;3.78;;;;;;;14.08;69.09;99080.94;5060668;28;20037;-70
2021/05/13 02:59:46;;;;;;;6.63;3.70;;;;;;;13.96;68.61;99035.47;5057703;28;20019;-74
2021/05/13 03:02:12;;;;;;;12.98;3.60;;;;;;;14.10;67.91;99068.25;5053133;28;20104;-73
2021/05/13 03:04:39;;;;;;;6.80;3.45;;;;;;;13.85;69.33;99072.47;5058878;28;20338;-68
2021/05/13 03:07:04;;;;;;;9.63;3.47;;;;;;;13.92;69.30;99073.31;5057488;28;20021;-74
2021/05/13 03:09:30;;;;;;;7.70;3.65;;;;;;;13.98;68.44;99067.19;5058515;28;20377;-73
2021/05/13 03:11:56;;;;;;;5.25;3.50;;;;;;;14.13;67.95;99059.88;5059485;28;20092;-74
2021/05/13 03:14:21;;;;;;;8.85;4.15;;;;;;;14.21;67.86;99053.53;5058469;28;20327;-73
2021/05/13 03:16:47;;;;;;;6.05;3.92;;;;;;;14.32;68.18;99053.75;5059025;28;20388;-70
2021/05/13 03:19:18;;;;;;;8.48;4.05;;;;;;;14.33;67.36;99050.06;5060465;28;20070;-70
2021/05/13 03:21:46;;;;;;;9.10;5.60;;;;;;;14.16;68.13;99046.16;5058084;28;20158;-70
2021/05/13 03:29:17;;;;;;;7.30;4.72;;;;;;;14.21;67.58;99053.53;5057628;28;19913;-73
2021/05/13 03:31:43;;;;;;;6.78;3.92;;;;;;;14.14;67.58;99026.91;5059196;28;20041;-70
2021/05/13 03:34:08;;;;;;;10.90;4.13;;;;;;;14.31;66.73;99059.28;5058595;28;20095;-70
2021/05/13 03:36:34;;;;;;;8.52;4.28;;;;;;;14.43;65.97;99068.34;5058171;28;20036;-70
2021/05/13 03:39:06;;;;;;;11.88;3.78;;;;;;;14.54;65.44;99059.75;5059339;28;20100;-71
2021/05/13 03:41:33;;;;;;;6.82;4.20;;;;;;;14.74;64.98;99064.31;5060337;28;20090;-70
2021/05/13 03:43:58;;;;;;;9.40;4.35;;;;;;;14.88;64.11;99055.28;5062559;28;20333;-71
2021/05/13 03:46:23;;;;;;;7.95;3.83;;;;;;;14.95;63.72;99056.09;5061946;28;20349;-70
2021/05/13 03:48:49;;;;;;;5.95;3.88;;;;;;;14.99;64.21;99071.47;5062231;28;20051;-76
2021/05/13 03:51:15;;;;;;;6.38;3.88;;;;;;;15.10;63.64;99075.34;5063724;28;20047;-76
2021/05/13 03:53:41;;;;;;;7.28;3.42;;;;;;;15.20;63.14;99074.91;5061640;28;20040;-76
2021/05/13 03:56:06;;;;;;;7.13;3.30;;;;;;;15.27;62.70;99076.53;5061473;28;20033;-76
2021/05/13 03:58:37;;;;;;;10.00;3.40;;;;;;;15.49;62.23;99070.94;5062873;28;20047;-74
2021/05/13 04:01:11;;;;;;;4.97;3.53;;;;;;;15.37;62.10;99072.63;5061941;28;20036;-73
2021/05/13 04:03:36;;;;;;;8.05;3.47;;;;;;;15.41;62.38;99088.00;5058160;28;20230;-69
2021/05/13 04:06:02;;;;;;;7.40;3.80;;;;;;;15.36;62.60;99090.47;5062146;28;20021;-73
2021/05/13 04:08:27;;;;;;;6.15;3.70;;;;;;;15.31;62.67;99095.63;5060759;28;20040;-69
2021/05/13 04:10:53;;;;;;;7.80;3.70;;;;;;;15.19;62.22;99105.28;5062308;28;20044;-74
2021/05/13 04:13:20;;;;;;;7.18;3.83;;;;;;;15.16;63.27;99105.69;5062128;28;20045;-74
2021/05/13 04:15:46;;;;;;;8.98;4.20;;;;;;;15.27;62.61;99102.41;5061573;28;20039;-73
2021/05/13 04:18:12;;;;;;;10.85;4.05;;;;;;;15.27;63.52;99097.88;5062113;28;20033;-73
2021/05/13 04:20:37;;;;;;;8.88;3.70;;;;;;;15.18;62.78;99099.13;5060624;28;20037;-68
2021/05/13 04:23:03;;;;;;;10.50;4.22;;;;;;;15.42;62.81;99105.66;5061518;28;20112;-68
2021/05/13 04:25:28;;;;;;;5.32;4.03;;;;;;;15.57;61.86;99102.75;5060621;28;20033;-74
2021/05/13 04:27:54;;;;;;;6.72;3.88;;;;;;;15.53;61.37;99099.66;5060955;28;20044;-68
2021/05/13 04:30:20;;;;;;;12.20;3.75;;;;;;;15.81;60.54;99101.28;5061250;28;20033;-68
2021/05/13 04:32:45;;;;;;;7.32;3.83;;;;;;;16.21;60.37;99107.25;5059359;28;20063;-73
2021/05/13 04:35:12;;;;;;;7.82;3.30;;;;;;;16.26;58.39;99102.09;5061418;28;20041;-68
2021/05/13 04:37:37;;;;;;;6.00;4.05;;;;;;;16.00;59.24;99104.91;5061036;28;20028;-68
2021/05/13 04:40:04;;;;;;;9.18;3.95;;;;;;;16.00;58.48;99103.03;5060802;28;20028;-73
2021/05/13 04:42:30;;;;;;;9.02;4.32;;;;;;;16.34;58.47;99095.69;5059370;28;20040;-73
2021/05/13 04:44:57;;;;;;;7.43;4.07;;;;;;;16.55;57.23;99088.13;5058447;28;20044;-68
2021/05/13 04:50:14;;;;;;;5.35;3.85;;;;;;;15.70;59.53;99101.94;5050480;28;20066;-68
2021/05/13 04:52:40;;;;;;;5.47;3.58;;;;;;;16.15;59.73;99102.78;5059871;28;20092;-68
2021/05/13 04:55:06;;;;;;;8.95;3.50;;;;;;;15.99;58.23;99084.56;5058726;28;20033;-68
2021/05/13 04:57:34;;;;;;;7.45;3.65;;;;;;;15.95;58.68;99102.88;5077121;28;20029;-73
2021/05/13 05:00:02;;;;;;;14.13;4.68;;;;;;;16.40;58.69;99092.97;5059372;28;20045;-68
2021/05/13 05:02:29;;;;;;;7.00;3.28;;;;;;;16.51;57.03;99094.94;5059305;28;20345;-73
2021/05/13 05:04:54;;;;;;;13.63;3.72;;;;;;;16.60;58.00;99090.16;5074668;28;20033;-73
2021/05/13 05:07:20;;;;;;;6.63;3.25;;;;;;;16.71;57.12;99108.22;5058662;28;20055;-68
2021/05/13 05:09:45;;;;;;;11.02;3.90;;;;;;;17.33;54.83;99117.16;5058502;28;20037;-73
2021/05/13 05:12:13;;;;;;;10.98;3.13;;;;;;;17.92;54.24;99131.00;5058711;28;20029;-68
2021/05/13 05:14:39;;;;;;;9.18;2.88;;;;;;;17.55;52.94;99129.09;5059392;28;20380;-68
2021/05/13 05:17:04;;;;;;;8.50;3.20;;;;;;;17.25;54.84;99122.78;5058789;28;20051;-68
2021/05/13 05:19:30;;;;;;;10.70;3.25;;;;;;;17.39;53.24;99126.97;5058523;28;20025;-73
2021/05/13 05:21:56;;;;;;;11.13;3.40;;;;;;;17.23;53.75;99130.22;5060189;28;20043;-68
2021/05/13 05:24:22;;;;;;;6.50;3.28;;;;;;;17.22;53.38;99131.25;5060998;28;20079;-69
2021/05/13 05:26:47;;;;;;;9.10;3.28;;;;;;;17.28;55.29;99124.22;5060326;28;20047;-69
2021/05/13 05:29:12;;;;;;;5.78;3.25;;;;;;;17.17;54.89;99121.22;5058161;28;20083;-68
2021/05/13 05:31:38;;;;;;;9.32;2.80;;;;;;;17.34;53.42;99121.47;5059920;28;20044;-74
2021/05/13 05:34:03;;;;;;;9.77;4.07;;;;;;;17.45;54.46;99119.94;5058370;28;20033;-69
2021/05/13 05:36:29;;;;;;;8.35;3.35;;;;;;;17.98;52.23;99114.84;5058864;28;20016;-69
2021/05/13 05:38:55;;;;;;;6.25;3.20;;;;;;;18.46;52.32;99117.50;5058359;28;20210;-73
2021/05/13 05:41:24;;;;;;;6.18;2.88;;;;;;;18.84;50.44;99105.63;5057956;28;20028;-68
2021/05/13 05:43:50;;;;;;;7.22;3.42;;;;;;;18.94;50.75;99113.13;5059733;28;20219;-69
2021/05/13 05:46:15;;;;;;;5.85;2.92;;;;;;;18.91;50.37;99111.72;5058957;28;20021;-68
2021/05/13 05:48:40;;;;;;;5.05;2.70;;;;;;;18.91;50.04;99111.72;5061112;28;20327;-68
2021/05/13 05:51:06;;;;;;;6.35;2.80;;;;;;;19.14;49.68;99114.41;5065017;28;20056;-74
2021/05/13 05:53:31;;;;;;;5.10;2.88;;;;;;;19.49;48.17;99110.91;5076701;28;20021;-68
2021/05/13 05:55:57;;;;;;;7.40;2.75;;;;;;;19.62;47.48;99125.97;5067744;28;20334;-73
2021/05/13 05:58:22;;;;;;;6.55;3.00;;;;;;;19.67;47.63;99120.72;5058639;28;20033;-74
2021/05/13 06:00:48;;;;;;;4.88;3.03;;;;;;;20.15;45.13;99092.69;5057476;28;20327;-68
2021/05/13 06:03:14;;;;;;;4.90;2.50;;;;;;;20.02;45.03;99120.69;5056972;28;20048;-74
2021/05/13 06:05:39;;;;;;;8.02;3.00;;;;;;;19.52;47.34;99118.53;5058815;28;20385;-68
2021/05/13 06:08:05;;;;;;;7.05;2.95;;;;;;;18.73;50.42;99117.16;5057450;28;20079;-73
2021/05/13 06:10:31;;;;;;;7.88;3.30;;;;;;;18.44;51.58;99103.50;5059841;28;20037;-69
2021/05/13 06:12:57;;;;;;;4.65;2.75;;;;;;;18.31;52.97;99106.38;5059404;28;20098;-68
2021/05/13 06:15:23;;;;;;;10.65;3.50;;;;;;;18.90;50.85;99111.94;5058757;28;20035;-68
2021/05/13 06:17:49;;;;;;;6.90;2.80;;;;;;;19.30;48.89;99104.03;5057362;28;20049;-69
2021/05/13 06:20:22;;;;;;;3.78;2.60;;;;;;;19.94;46.40;99105.75;5056846;28;20192;-74
2021/05/13 06:22:47;;;;;;;4.03;2.95;;;;;;;20.27;45.06;99104.22;5057026;28;20369;-69
2021/05/13 06:25:13;;;;;;;5.05;2.45;;;;;;;20.17;45.52;99096.78;5058833;28;20245;-74
2021/05/13 06:27:39;;;;;;;4.15;2.38;;;;;;;20.77;44.15;99109.72;5056197;28;20070;-74
2021/05/13 06:30:06;;;;;;;4.05;2.00;;;;;;;20.45;44.06;99112.13;5058538;28;20024;-74
2021/05/13 06:32:32;;;;;;;7.22;2.45;;;;;;;20.99;43.61;99107.16;5058204;28;20029;-69
2021/05/13 06:34:57;;;;;;;5.55;2.60;;;;;;;21.07;41.79;99103.22;5057160;28;20530;-69
2021/05/13 06:37:22;;;;;;;4.60;2.60;;;;;;;20.75;44.16;99092.19;5057435;28;20025;-74
2021/05/13 06:39:48;;;;;;;4.45;2.70;;;;;;;20.90;43.43;99100.53;5057596;28;20048;-73
2021/05/13 06:42:15;;;;;;;5.05;2.47;;;;;;;21.23;41.99;99089.78;5056867;28;20342;-74
2021/05/13 06:44:40;;;;;;;6.82;2.83;;;;;;;21.30;41.56;99089.59;5056602;28;20040;-74
2021/05/13 06:47:06;;;;;;;6.38;2.80;;;;;;;21.08;42.15;99096.78;5073030;28;20041;-70
2021/05/13 06:49:32;;;;;;;6.57;2.85;;;;;;;21.24;41.55;99087.91;5056715;28;20036;-68
2021/05/13 06:51:57;;;;;;;7.13;3.58;;;;;;;20.80;43.35;99093.09;5056575;28;20029;-69
2021/05/13 06:54:23;;;;;;;6.18;2.83;;;;;;;21.38;41.39;99091.88;5057786;28;20029;-74
2021/05/13 06:56:49;;;;;;;5.15;2.55;;;;;;;21.52;41.36;99084.25;5056793;28;20048;-69
2021/05/13 06:59:15;;;;;;;6.45;3.13;;;;;;;21.74;40.19;99084.25;5057309;28;20071;-74
2021/05/13 07:01:41;;;;;;;4.45;2.80;;;;;;;22.42;39.40;99085.63;5071885;28;20028;-74
2021/05/13 07:04:06;;;;;;;5.95;3.20;;;;;;;22.26;40.05;99081.97;5058212;28;20033;-74
2021/05/13 07:06:34;;;;;;;11.15;3.42;;;;;;;22.67;38.69;99077.75;5056416;28;22092;-74
2021/05/13 07:09:00;;;;;;;8.02;2.90;;;;;;;22.98;38.27;99078.88;5054348;28;20075;-74
2021/05/13 07:11:25;;;;;;;11.88;3.30;;;;;;;23.12;38.74;99082.75;5057876;28;20041;-69
2021/05/13 07:13:51;;;;;;;5.40;3.00;;;;;;;23.45;38.43;99081.59;5056786;28;20373;-74
2021/05/13 07:16:16;;;;;;;5.07;2.92;;;;;;;23.58;38.06;99071.44;5071684;28;20017;-73
2021/05/13 07:18:42;;;;;;;7.40;3.22;;;;;;;23.69;37.70;99082.03;5060748;28;20254;-74
2021/05/13 07:21:07;;;;;;;8.18;2.83;;;;;;;23.76;37.35;99071.78;5061249;28;20071;-74
2021/05/13 07:23:33;;;;;;;6.00;2.70;;;;;;;23.97;37.12;99064.59;5064505;28;20350;-74
2021/05/13 07:25:59;;;;;;;9.65;3.33;;;;;;;23.71;37.52;99063.66;5064707;28;20021;-74
2021/05/13 07:28:25;;;;;;;7.55;2.97;;;;;;;23.70;38.25;99075.53;5065682;28;20068;-74
2021/05/13 07:30:50;;;;;;;6.03;3.17;;;;;;;23.32;38.37;99065.88;5080731;28;20345;-74
2021/05/13 07:33:16;;;;;;;4.57;3.13;;;;;;;23.04;39.02;99058.94;5065378;28;20025;-74
2021/05/13 07:35:41;;;;;;;10.15;3.67;;;;;;;23.03;39.49;99065.41;5065485;28;20047;-74
2021/05/13 07:38:07;;;;;;;6.88;3.10;;;;;;;22.93;39.27;99049.94;5065068;28;20372;-74
2021/05/13 07:40:35;;;;;;;12.40;3.13;;;;;;;23.02;39.90;99050.28;5062499;28;20021;-74
2021/05/13 07:43:01;;;;;;;9.85;3.40;;;;;;;23.10;39.90;99062.47;5065506;28;20096;-69
2021/05/13 07:45:27;;;;;;;8.40;2.90;;;;;;;22.87;40.20;99044.75;5063837;28;20043;-69
2021/05/13 07:47:54;;;;;;;5.50;2.95;;;;;;;22.80;40.79;99069.25;5065062;28;20053;-74
2021/05/13 07:50:22;;;;;;;8.23;3.58;;;;;;;21.60;43.37;99054.19;5064819;28;20029;-74
2021/05/13 07:52:48;;;;;;;7.65;3.45;;;;;;;21.29;44.62;99043.00;5064682;28;20029;-74
2021/05/13 07:55:16;;;;;;;8.98;3.83;;;;;;;21.38;44.74;99064.94;5066042;28;20036;-69
2021/05/13 07:57:44;;;;;;;6.15;3.50;;;;;;;22.16;42.98;99065.66;5080205;28;20074;-69
2021/05/13 08:00:10;;;;;;;8.25;3.72;;;;;;;22.93;40.84;99051.84;5064221;28;20182;-69
2021/05/13 08:02:36;;;;;;;7.63;3.70;;;;;;;22.95;40.45;99059.69;5062506;28;20208;-69
2021/05/13 08:05:02;;;;;;;7.40;3.28;;;;;;;22.74;41.19;99061.34;5063104;28;20096;-73
2021/05/13 08:07:27;;;;;;;6.93;3.55;;;;;;;22.61;41.23;99054.50;5078854;28;20025;-74
2021/05/13 08:09:54;;;;;;;6.38;3.47;;;;;;;22.67;41.63;99061.56;5062538;28;20033;-74
2021/05/13 08:12:19;;;;;;;8.77;3.05;;;;;;;22.82;41.39;99053.63;5066997;28;20070;-69
2021/05/13 08:14:45;;;;;;;7.47;3.53;;;;;;;22.55;41.92;99048.25;5070349;28;20040;-75
2021/05/13 08:17:12;;;;;;;7.38;3.08;;;;;;;22.50;42.54;99045.50;5074415;28;20020;-74
2021/05/13 08:19:38;;;;;;;6.72;3.30;;;;;;;23.10;41.34;99044.41;5066979;28;20040;-69
2021/05/13 08:22:03;;;;;;;7.88;2.95;;;;;;;22.98;41.78;99040.25;5071727;28;20040;-74
2021/05/13 08:24:29;;;;;;;7.22;3.50;;;;;;;22.92;41.51;99034.81;5062717;28;20029;-74
2021/05/13 08:26:57;;;;;;;6.53;2.78;;;;;;;23.11;41.78;99023.59;5063284;28;20596;-68
2021/05/13 08:29:24;;;;;;;9.00;3.45;;;;;;;23.01;41.06;99045.16;5061751;28;20079;-69
2021/05/13 08:31:49;;;;;;;8.82;3.72;;;;;;;23.32;40.54;99046.94;5062799;28;20258;-74
2021/05/13 08:34:14;;;;;;;7.10;3.10;;;;;;;23.43;40.09;99018.09;5063127;28;20037;-70
2021/05/13 08:36:40;;;;;;;9.85;3.40;;;;;;;23.48;40.03;99037.84;5064303;28;20037;-74
2021/05/13 08:39:05;;;;;;;7.57;3.42;;;;;;;23.62;40.39;99040.09;5064751;28;20035;-75
2021/05/13 08:41:31;;;;;;;9.20;3.10;;;;;;;23.67;39.93;99038.22;5067056;28;20234;-75
2021/05/13 08:43:57;;;;;;;4.97;2.63;;;;;;;24.44;38.23;99017.63;5071628;28;20033;-70
2021/05/13 08:46:23;;;;;;;11.15;3.08;;;;;;;25.13;37.25;99026.03;5070551;28;20045;-74
2021/05/13 08:48:49;;;;;;;6.75;2.95;;;;;;;25.70;35.28;99030.19;5073080;28;20090;-69
2021/05/13 08:51:17;;;;;;;7.95;3.00;;;;;;;26.04;35.71;99024.06;5066002;28;20028;-69
2021/05/13 08:54:00;;;;;;;11.45;2.80;;;;;;;24.99;36.51;99011.41;5074643;28;20067;-74
2021/05/13 08:56:28;;;;;;;13.50;3.13;;;;;;;24.55;36.94;99008.44;5066656;28;20043;-70
2021/05/13 08:58:55;;;;;;;8.55;2.78;;;;;;;25.26;36.40;99010.28;5073584;28;20061;-69
2021/05/13 09:01:22;;;;;;;6.05;2.80;;;;;;;25.49;36.45;99006.13;5065522;28;20033;-69
2021/05/13 09:03:50;;;;;;;5.65;2.78;;;;;;;25.63;35.65;99004.44;5075203;28;20354;-69
2021/05/13 09:06:26;;;;;;;5.97;2.50;;;;;;;24.95;36.50;98994.03;5064280;28;20036;-70
2021/05/13 09:08:51;;;;;;;6.60;2.85;;;;;;;24.79;38.02;98987.84;5062349;28;20412;-70
2021/05/13 09:11:18;;;;;;;7.47;3.13;;;;;;;24.71;37.69;98998.41;5063863;28;20036;-74
2021/05/13 09:13:48;;;;;;;7.70;3.22;;;;;;;24.47;37.94;98998.16;5072632;28;20032;-69
2021/05/13 09:16:30;;;;;;;6.18;3.10;;;;;;;24.59;38.90;98984.34;5057348;28;20025;-69
2021/05/13 09:18:56;;;;;;;7.90;3.40;;;;;;;24.37;38.77;98987.31;5056791;28;20040;-69
2021/05/13 09:21:23;;;;;;;7.35;3.03;;;;;;;23.95;39.09;98990.22;5059444;28;20060;-69
2021/05/13 09:23:49;;;;;;;6.13;2.97;;;;;;;24.38;38.48;98978.13;5071943;28;20029;-69
2021/05/13 09:26:17;;;;;;;8.35;2.78;;;;;;;24.45;38.04;98963.25;5056045;28;20291;-74
2021/05/13 09:28:46;;;;;;;7.28;3.17;;;;;;;24.57;38.12;98978.38;5059068;28;20037;-69
2021/05/13 09:31:35;;;;;;;7.72;3.45;;;;;;;24.66;38.20;98969.44;5060613;28;20048;-74
2021/05/13 09:34:11;;;;;;;6.75;3.15;;;;;;;24.41;39.27;98972.16;5062383;28;20264;-70
2021/05/13 09:36:37;;;;;;;6.28;2.85;;;;;;;24.30;39.03;98970.53;5067137;28;20032;-70
2021/05/13 09:39:24;;;;;;;6.50;3.30;;;;;;;24.03;39.91;98962.66;5063834;28;20033;-74
2021/05/13 09:42:04;;;;;;;13.57;3.67;;;;;;;23.22;42.03;98958.59;5076804;28;20205;-70
2021/05/13 09:44:43;;;;;;;6.05;3.35;;;;;;;23.26;42.06;98958.88;5063880;28;20029;-70
2021/05/13 09:47:16;;;;;;;8.90;3.58;;;;;;;23.67;42.73;98949.03;5070824;28;20029;-69
2021/05/13 09:50:06;;;;;;;6.75;2.95;;;;;;;23.80;41.64;98959.34;5062218;28;20052;-69
2021/05/13 09:52:47;;;;;;;7.68;2.95;;;;;;;23.98;40.50;98943.72;5061208;28;20036;-74
2021/05/13 09:55:23;;;;;;;7.47;3.05;;;;;;;24.25;40.34;98940.75;5061722;28;20056;-74
2021/05/13 09:58:07;;;;;;;5.90;2.78;;;;;;;24.19;40.27;98932.63;5061486;28;20040;-74
2021/05/13 10:00:47;;;;;;;7.65;2.85;;;;;;;23.28;43.99;98902.69;5062139;28;20028;-69
2021/05/13 10:03:22;;;;;;;4.68;2.85;;;;;;;23.27;43.17;98932.66;5063777;28;20043;-69
2021/05/13 10:05:53;;;;;;;9.88;3.00;;;;;;;23.36;42.71;98931.91;5068372;28;20030;-74
2021/05/13 10:08:20;;;;;;;12.10;2.85;;;;;;;23.49;42.36;98912.47;5063047;28;20037;-69
2021/05/13 10:10:46;;;;;;;7.50;3.20;;;;;;;23.38;44.01;98928.94;5079512;28;20032;-69
2021/05/13 10:13:16;;;;;;;7.20;2.70;;;;;;;23.03;43.10;98918.78;5060749;28;20061;-75
2021/05/13 10:15:42;;;;;;;5.07;2.63;;;;;;;23.25;42.42;98930.22;5073425;28;20099;-69
2021/05/13 10:18:25;;;;;;;5.00;2.97;;;;;;;23.42;42.47;98925.44;5057880;28;20206;-75
2021/05/13 10:20:54;;;;;;;6.87;2.67;;;;;;;23.22;43.95;98928.88;5058772;28;20052;-69
2021/05/13 10:23:20;;;;;;;8.63;2.92;;;;;;;23.29;42.19;98931.31;5060515;28;20036;-73
2021/05/13 10:25:46;;;;;;;9.95;2.85;;;;;;;23.20;42.12;98924.81;5057945;28;20021;-69
2021/05/13 10:28:13;;;;;;;5.80;2.38;;;;;;;22.97;40.86;98926.06;5058020;28;20051;-75
2021/05/13 10:30:39;;;;;;;6.30;2.42;;;;;;;22.88;41.20;98914.91;5072519;28;20013;-75
2021/05/13 10:33:13;;;;;;;5.60;2.10;;;;;;;23.30;39.96;98926.75;5057298;28;20074;-75
2021/05/13 10:35:40;;;;;;;6.65;2.58;;;;;;;23.38;40.29;98907.31;5056617;28;20028;-70
2021/05/13 10:38:13;;;;;;;7.72;3.00;;;;;;;23.71;42.75;98920.41;5058795;28;20033;-69
2021/05/13 10:41:14;;;;;;;4.18;2.83;;;;;;;23.64;43.26;98916.31;5057417;28;20051;-69
2021/05/13 10:43:33;;;;;;;4.90;2.95;;;;;;;23.31;41.63;98901.34;5055261;28;20040;-69
2021/05/13 10:45:58;;;;;;;10.77;3.00;;;;;;;23.41;42.16;98909.47;5058209;28;20017;-69
2021/05/13 10:48:39;;;;;;;7.07;3.03;;;;;;;23.64;40.22;98902.81;5056929;28;20021;-74
2021/05/13 10:51:07;;;;;;;7.68;2.75;;;;;;;23.60;40.34;98904.44;5059480;28;20052;-74
2021/05/13 10:53:35;;;;;;;7.97;3.05;;;;;;;23.76;42.08;98892.56;5062811;28;20044;-74
2021/05/13 10:56:27;;;;;;;6.50;2.85;;;;;;;23.66;42.18;98890.66;5064173;28;20045;-69
2021/05/13 10:59:10;;;;;;;6.45;2.97;;;;;;;23.81;41.71;98890.69;5064299;28;20052;-74
2021/05/13 11:01:50;;;;;;;5.93;2.30;;;;;;;23.61;41.50;98889.84;5064751;28;20024;-74
2021/05/13 11:06:59;;;;;;;4.15;2.22;;;;;;;23.79;41.03;98886.63;5064565;28;20218;-69
2021/05/13 11:09:37;;;;;;;4.43;2.33;;;;;;;23.58;39.26;98872.28;5064466;28;20033;-69
2021/05/13 11:12:08;;;;;;;6.15;2.42;;;;;;;23.62;39.82;98877.94;5064013;28;20066;-75
2021/05/13 11:14:34;;;;;;;9.00;2.45;;;;;;;23.77;38.98;98867.16;5064526;28;20072;-74
2021/05/13 11:17:04;;;;;;;5.00;2.25;;;;;;;24.25;37.97;98868.53;5064290;28;20060;-74
2021/05/13 11:19:30;;;;;;;8.88;2.08;;;;;;;24.13;36.44;98858.00;5064226;28;20065;-74
2021/05/13 11:22:06;;;;;;;5.93;2.13;;;;;;;24.05;39.55;98863.13;5063393;28;20041;-69
2021/05/13 11:24:37;;;;;;;8.68;2.40;;;;;;;23.97;38.35;98852.88;5065025;28;20057;-69
2021/05/13 11:27:04;;;;;;;7.18;2.60;;;;;;;24.30;36.92;98851.50;5065178;28;20074;-69
2021/05/13 11:29:43;;;;;;;9.18;2.90;;;;;;;24.46;37.93;98853.09;5065103;28;20048;-69
2021/05/13 11:32:09;;;;;;;3.72;2.08;;;;;;;24.46;38.55;98851.22;5065271;28;20041;-69
2021/05/13 11:34:35;;;;;;;5.18;2.53;;;;;;;24.59;39.09;98851.72;5064842;28;20040;-70
2021/05/13 11:37:01;;;;;;;9.60;3.00;;;;;;;24.65;38.76;98856.84;5064644;28;20318;-75
2021/05/13 11:39:26;;;;;;;3.42;2.30;;;;;;;24.60;38.81;98846.03;5080990;28;20021;-71
2021/05/13 11:41:59;;;;;;;10.40;2.55;;;;;;;24.33;39.45;98853.66;5064451;28;20040;-75
2021/05/13 11:44:25;;;;;;;6.15;2.33;;;;;;;24.34;39.22;98847.19;5081036;28;20028;-69
2021/05/13 11:46:52;;;;;;;8.95;2.88;;;;;;;24.65;38.29;98859.53;5064444;28;20135;-69
2021/05/13 11:49:17;;;;;;;6.20;2.70;;;;;;;24.72;39.67;98851.13;5064043;28;20033;-75
2021/05/13 11:51:42;;;;;;;7.60;2.45;;;;;;;24.62;40.20;98859.28;5064215;28;20036;-75
2021/05/13 11:54:09;;;;;;;6.40;2.72;;;;;;;24.65;40.11;98848.72;5065200;28;20310;-74